createdAt,value
2018-12-06T00:03:30.795Z,82.01
2018-12-06T00:08:33.985Z,81.99
2018-12-06T00:13:37.145Z,81.63
2018-12-06T00:18:40.357Z,82.63
2018-12-06T00:23:43.513Z,83.32
2018-12-06T00:28:46.692Z,83.15
2018-12-06T00:33:49.813Z,84.34
2018-12-06T00:38:52.982Z,84.46
2018-12-06T00:43:56.208Z,85.33
2018-12-06T00:48:59.364Z,85.96
2018-12-06T00:54:02.654Z,86.28
2018-12-06T00:59:06.507Z,86.16
2018-12-06T01:04:09.619Z,86.28
2018-12-06T01:09:12.784Z,87.24
2018-12-06T01:14:16.004Z,86.95
2018-12-06T01:19:19.180Z,87.88
2018-12-06T01:24:22.281Z,88.07
2018-12-06T01:29:25.382Z,87.78
2018-12-06T01:34:28.502Z,87.96
2018-12-06T01:39:34.480Z,89.00
2018-12-06T01:44:37.611Z,88.48
2018-12-06T01:49:40.745Z,89.58
2018-12-06T01:54:43.930Z,89.78
2018-12-06T01:59:47.058Z,90.63
2018-12-06T02:04:50.149Z,90.57
2018-12-06T02:09:53.233Z,90.78
2018-12-06T02:14:56.349Z,91.28
2018-12-06T02:19:59.465Z,90.24
2018-12-06T02:25:02.770Z,90.12
2018-12-06T02:30:06.175Z,90.84
2018-12-06T02:40:18.253Z,91.11
2018-12-06T02:45:21.344Z,90.38
2018-12-06T02:50:24.809Z,90.16
2018-12-06T02:55:27.941Z,90.12
2018-12-06T03:00:31.067Z,90.27
2018-12-06T03:05:34.217Z,89.32
2018-12-06T03:10:37.389Z,89.18
2018-12-06T03:15:40.525Z,88.42
2018-12-06T03:20:43.643Z,88.58
2018-12-06T03:25:46.811Z,89.26
2018-12-06T03:30:49.919Z,89.36
2018-12-06T03:35:53.088Z,89.34
2018-12-06T03:40:57.364Z,90.53
2018-12-06T03:46:00.565Z,89.85
2018-12-06T03:51:03.774Z,90.37
2018-12-06T03:56:06.910Z,89.88
2018-12-06T04:01:10.025Z,90.05
2018-12-06T04:06:13.133Z,90.03
2018-12-06T04:11:16.232Z,90.71
2018-12-06T04:16:19.347Z,90.59
2018-12-06T04:21:22.494Z,90.26
2018-12-06T04:26:25.748Z,90.34
2018-12-06T04:31:28.837Z,90.14
2018-12-06T04:36:31.997Z,90.18
2018-12-06T04:41:35.240Z,90.61
2018-12-06T04:46:38.369Z,90.94
2018-12-06T04:51:41.597Z,90.20
2018-12-06T04:56:44.702Z,89.95
2018-12-06T05:01:47.849Z,89.39
2018-12-06T05:06:50.982Z,89.21
2018-12-06T05:11:54.146Z,90.42
2018-12-06T05:16:57.608Z,90.64
2018-12-06T05:22:00.744Z,90.75
2018-12-06T05:27:04.186Z,90.26
2018-12-06T05:32:07.465Z,90.37
2018-12-06T05:37:10.626Z,90.73
2018-12-06T05:42:13.793Z,90.58
2018-12-06T05:47:16.928Z,90.21
2018-12-06T05:52:20.091Z,90.01
2018-12-06T05:57:23.228Z,90.50
2018-12-06T06:02:26.406Z,89.54
2018-12-06T06:07:29.538Z,88.91
2018-12-06T06:12:33.178Z,89.69
2018-12-06T06:17:36.468Z,90.18
2018-12-06T06:22:39.598Z,91.18
2018-12-06T06:27:42.730Z,90.71
2018-12-06T06:32:45.868Z,91.23
2018-12-06T06:37:49.021Z,91.05
2018-12-06T06:42:52.117Z,90.49
2018-12-06T06:47:55.225Z,90.79
2018-12-06T06:52:58.333Z,91.02
2018-12-06T06:58:01.487Z,90.16
2018-12-06T07:03:04.736Z,90.31
2018-12-06T07:08:07.908Z,89.89
2018-12-06T07:13:11.036Z,89.15
2018-12-06T07:18:14.168Z,89.93
2018-12-06T07:23:17.309Z,89.89
2018-12-06T07:28:21.056Z,89.75
2018-12-06T07:33:24.197Z,90.07
2018-12-06T07:38:27.447Z,90.48
2018-12-06T07:43:31.089Z,90.51
2018-12-06T07:48:34.881Z,90.67
2018-12-06T07:53:37.998Z,89.46
2018-12-06T07:58:41.122Z,89.93
2018-12-06T08:03:44.221Z,90.15
2018-12-06T08:08:47.372Z,90.96
2018-12-06T08:13:50.505Z,89.98
2018-12-06T08:18:53.652Z,90.23
2018-12-06T08:23:56.844Z,90.69
2018-12-06T08:28:59.995Z,89.94
2018-12-06T08:34:06.311Z,90.98
2018-12-06T08:39:08.402Z,90.69
2018-12-06T08:44:11.568Z,90.68
2018-12-06T08:49:14.706Z,90.79
2018-12-06T08:54:17.842Z,90.32
2018-12-06T08:59:21.027Z,91.17
2018-12-06T09:04:24.246Z,90.41
2018-12-06T09:09:27.410Z,90.73
2018-12-06T09:14:30.748Z,90.87
2018-12-06T09:19:33.896Z,90.62
2018-12-06T09:24:37.015Z,90.81
2018-12-06T09:29:40.189Z,91.26
2018-12-06T09:34:43.365Z,91.41
2018-12-06T09:40:00.860Z,91.25
2018-12-06T09:45:04.928Z,91.05
2018-12-06T09:50:08.554Z,91.29
2018-12-06T09:55:11.822Z,91.61
2018-12-06T10:00:16.829Z,91.51
2018-12-06T10:05:19.953Z,91.73
2018-12-06T10:10:23.100Z,92.11
2018-12-06T10:15:27.310Z,91.50
2018-12-06T10:20:31.180Z,91.75
2018-12-06T10:25:34.419Z,91.81
2018-12-06T10:30:38.235Z,91.88
2018-12-06T10:35:41.441Z,92.01
2018-12-06T10:40:45.608Z,91.58
2018-12-06T10:45:48.965Z,91.37
2018-12-06T10:56:16.039Z,90.87
2018-12-06T11:01:21.270Z,91.35
2018-12-06T11:06:24.417Z,91.62
2018-12-06T11:11:27.598Z,91.30
2018-12-06T11:16:30.877Z,91.38
2018-12-06T11:21:34.167Z,91.59
2018-12-06T11:26:37.309Z,91.40
2018-12-06T11:31:41.493Z,91.28
2018-12-06T11:36:44.936Z,90.85
2018-12-06T11:41:48.229Z,90.51
2018-12-06T11:46:51.422Z,90.92
2018-12-06T11:51:54.594Z,90.96
2018-12-06T11:56:57.785Z,91.38
2018-12-06T12:02:01.049Z,91.92
2018-12-06T12:07:04.238Z,91.66
2018-12-06T12:12:07.434Z,91.86
2018-12-06T12:17:10.695Z,92.08
2018-12-06T12:22:13.890Z,91.76
2018-12-06T12:27:17.157Z,91.79
2018-12-06T12:32:20.350Z,92.03
2018-12-06T12:37:23.570Z,92.18
2018-12-06T12:42:26.781Z,92.27
2018-12-06T12:47:30.006Z,92.35
2018-12-06T12:52:33.183Z,92.60
2018-12-06T12:57:36.353Z,92.33
2018-12-06T13:02:39.536Z,92.22
2018-12-06T13:07:42.825Z,92.51
2018-12-06T13:12:45.952Z,92.35
2018-12-06T13:17:49.118Z,92.24
2018-12-06T13:22:52.286Z,92.25
2018-12-06T13:27:55.429Z,91.97
2018-12-06T13:32:58.620Z,92.24
2018-12-06T13:38:01.830Z,92.50
2018-12-06T13:43:05.269Z,92.29
2018-12-06T13:48:08.471Z,92.17
2018-12-06T13:53:11.633Z,92.35
2018-12-06T13:58:15.028Z,92.40
2018-12-06T14:03:18.347Z,92.26
2018-12-06T14:08:21.559Z,92.30
2018-12-06T14:13:24.769Z,92.23
2018-12-06T14:18:27.982Z,91.94
2018-12-06T14:23:31.162Z,91.92
2018-12-06T14:28:34.341Z,92.02
2018-12-06T14:33:37.629Z,92.12
2018-12-06T14:38:40.802Z,92.15
2018-12-06T14:48:59.743Z,92.80
2018-12-06T14:54:03.090Z,92.28
2018-12-06T14:59:06.333Z,92.17
2018-12-06T15:04:09.545Z,92.45
2018-12-06T15:09:12.828Z,92.22
2018-12-06T15:14:16.171Z,92.25
2018-12-06T15:19:19.372Z,92.58
2018-12-06T15:24:22.577Z,92.40
2018-12-06T15:29:25.845Z,92.74
2018-12-06T15:34:29.128Z,92.85
2018-12-06T15:39:32.422Z,92.37
2018-12-06T15:44:35.706Z,92.58
2018-12-06T15:49:38.962Z,92.94
2018-12-06T15:54:42.157Z,92.96
2018-12-06T15:59:45.405Z,92.83
2018-12-06T16:04:48.589Z,92.23
2018-12-06T16:09:51.829Z,92.83
2018-12-06T16:14:55.062Z,92.38
2018-12-06T16:19:58.217Z,92.57
2018-12-06T16:25:01.439Z,92.50
2018-12-06T16:30:06.981Z,92.79
2018-12-06T16:35:10.339Z,92.62
2018-12-06T16:40:13.701Z,92.85
2018-12-06T16:45:16.939Z,92.53
2018-12-06T16:50:20.271Z,93.16
2018-12-06T16:55:23.518Z,92.99
2018-12-06T17:00:26.765Z,93.06
2018-12-06T17:10:45.947Z,92.64
2018-12-06T17:15:49.216Z,92.53
2018-12-06T17:20:52.490Z,92.48
2018-12-06T17:25:55.809Z,93.08
2018-12-06T17:30:59.063Z,93.00
2018-12-06T17:36:02.303Z,92.83
2018-12-06T17:41:05.864Z,92.69
2018-12-06T17:46:09.216Z,92.92
2018-12-06T17:51:12.713Z,92.93
2018-12-06T17:56:16.028Z,92.89
2018-12-06T18:01:19.602Z,93.29
2018-12-06T18:06:22.881Z,93.37
2018-12-06T18:11:26.175Z,92.90
2018-12-06T18:16:29.478Z,92.97
2018-12-06T18:21:32.741Z,93.78
2018-12-06T18:26:36.048Z,93.41
2018-12-06T18:31:39.319Z,93.14
2018-12-06T18:36:42.575Z,92.68
2018-12-06T18:41:45.809Z,92.58
2018-12-06T18:46:49.066Z,92.71
2018-12-06T18:51:52.315Z,93.32
2018-12-06T18:56:56.207Z,92.91
2018-12-06T19:01:59.692Z,92.49
2018-12-06T19:07:03.049Z,92.66
2018-12-06T19:12:06.557Z,93.40
2018-12-06T19:17:09.856Z,93.03
2018-12-06T19:22:13.046Z,93.62
2018-12-06T19:27:16.282Z,93.45
2018-12-06T19:32:19.550Z,93.32
2018-12-06T19:37:23.083Z,93.79
2018-12-06T19:42:26.787Z,93.41
2018-12-06T19:47:30.319Z,93.48
2018-12-06T19:52:34.018Z,93.46
2018-12-06T19:57:37.293Z,93.95
2018-12-06T20:02:40.549Z,93.94
2018-12-06T20:07:43.878Z,93.73
2018-12-06T20:12:47.565Z,93.65
2018-12-06T20:17:51.275Z,93.35
2018-12-06T20:22:55.815Z,93.28
2018-12-06T20:27:59.126Z,93.10
2018-12-06T20:33:03.662Z,93.84
2018-12-06T20:38:06.990Z,93.28
2018-12-06T20:43:10.332Z,94.04
2018-12-06T20:48:13.592Z,93.65
2018-12-06T20:53:16.943Z,94.14
2018-12-06T20:58:20.220Z,93.47
2018-12-06T21:03:23.574Z,93.66
2018-12-06T21:08:27.124Z,93.64
2018-12-06T21:13:30.415Z,93.82
2018-12-06T21:18:33.749Z,93.61
2018-12-06T21:23:37.060Z,92.93
2018-12-06T21:28:40.352Z,93.59
2018-12-06T21:33:43.575Z,93.28
2018-12-06T21:38:46.837Z,93.12
2018-12-06T21:43:50.101Z,93.19
2018-12-06T21:48:53.397Z,93.72
2018-12-06T21:53:56.941Z,93.46
2018-12-06T21:59:00.321Z,93.21
2018-12-06T22:04:03.874Z,92.92
2018-12-06T22:09:07.883Z,93.68
2018-12-06T22:14:11.205Z,93.79
2018-12-06T22:19:14.452Z,93.56
2018-12-06T22:24:17.833Z,93.69
2018-12-06T22:29:21.676Z,93.27
2018-12-06T22:34:24.892Z,93.50
2018-12-06T22:39:28.169Z,93.58
2018-12-06T22:44:31.509Z,93.28
2018-12-06T22:49:34.670Z,93.23
2018-12-06T22:54:37.992Z,93.48
2018-12-06T22:59:41.197Z,93.52
2018-12-06T23:04:44.333Z,93.47
2018-12-06T23:09:48.194Z,92.79
2018-12-06T23:14:51.345Z,93.28
2018-12-06T23:19:54.606Z,92.94
2018-12-06T23:24:57.976Z,93.42
2018-12-06T23:30:01.118Z,93.18
2018-12-06T23:35:04.684Z,93.41
2018-12-06T23:40:07.857Z,93.14
2018-12-06T23:45:11.013Z,93.42
2018-12-06T23:50:14.618Z,93.73
2018-12-06T23:55:17.769Z,93.08
